sensor_id;sensor_type;location;lat;lon;timestamp;pressure;altitude;pressure_sealevel;temperature;humidity
46111;BME280;31849;55.992;37.252;2023-09-12T00:04:29;99449.44;;;10.91;64.27
46111;BME280;31849;55.992;37.252;2023-09-12T00:09:34;99460.72;;;10.87;64.29
46111;BME280;31849;55.992;37.252;2023-09-12T00:14:38;99463.38;;;10.73;64.39
46111;BME280;31849;55.992;37.252;2023-09-12T00:19:42;99454.72;;;10.68;64.67
46111;BME280;31849;55.992;37.252;2023-09-12T00:24:47;99459.06;;;10.63;64.03
46111;BME280;31849;55.992;37.252;2023-09-12T00:29:50;99470.38;;;10.39;64.72
46111;BME280;31849;55.992;37.252;2023-09-12T00:34:54;99467.75;;;10.31;64.73
46111;BME280;31849;55.992;37.252;2023-09-12T00:39:59;99468.66;;;10.40;64.31
46111;BME280;31849;55.992;37.252;2023-09-12T00:45:03;99468.66;;;10.36;65.21
46111;BME280;31849;55.992;37.252;2023-09-12T00:50:08;99479.91;;;10.40;65.22
46111;BME280;31849;55.992;37.252;2023-09-12T00:55:14;99480.75;;;10.41;64.78
46111;BME280;31849;55.992;37.252;2023-09-12T01:00:18;99485.09;;;10.28;64.61
46111;BME280;31849;55.992;37.252;2023-09-12T01:05:22;99485.94;;;10.24;65.05
46111;BME280;31849;55.992;37.252;2023-09-12T01:10:28;99485.09;;;10.31;64.80
46111;BME280;31849;55.992;37.252;2023-09-12T01:15:31;99482.50;;;10.25;65.78
46111;BME280;31849;55.992;37.252;2023-09-12T01:20:36;99483.34;;;10.31;66.02
46111;BME280;31849;55.992;37.252;2023-09-12T01:26:02;99484.25;;;10.41;65.95
46111;BME280;31849;55.992;37.252;2023-09-12T01:31:12;99488.56;;;10.34;65.55
46111;BME280;31849;55.992;37.252;2023-09-12T01:36:16;99491.13;;;10.33;65.63
46111;BME280;31849;55.992;37.252;2023-09-12T01:41:20;99492.00;;;10.23;65.18
46111;BME280;31849;55.992;37.252;2023-09-12T01:46:25;99497.22;;;10.21;64.84
46111;BME280;31849;55.992;37.252;2023-09-12T01:51:30;99500.66;;;10.11;64.98
46111;BME280;31849;55.992;37.252;2023-09-12T01:56:34;99504.13;;;10.02;64.86
46111;BME280;31849;55.992;37.252;2023-09-12T02:01:39;99502.41;;;9.98;64.37
46111;BME280;31849;55.992;37.252;2023-09-12T02:06:44;99504.13;;;9.76;64.43
46111;BME280;31849;55.992;37.252;2023-09-12T02:11:50;99507.56;;;9.67;64.60
46111;BME280;31849;55.992;37.252;2023-09-12T02:16:55;99522.28;;;9.70;64.53
46111;BME280;31849;55.992;37.252;2023-09-12T02:21:59;99520.53;;;9.64;64.58
46111;BME280;31849;55.992;37.252;2023-09-12T02:27:03;99517.97;;;9.72;65.32
46111;BME280;31849;55.992;37.252;2023-09-12T02:32:09;99511.03;;;9.69;65.14
46111;BME280;31849;55.992;37.252;2023-09-12T02:37:12;99525.75;;;9.68;65.08
46111;BME280;31849;55.992;37.252;2023-09-12T02:42:16;99524.00;;;9.63;65.09
46111;BME280;31849;55.992;37.252;2023-09-12T02:47:21;99522.25;;;9.60;64.99
46111;BME280;31849;55.992;37.252;2023-09-12T02:52:25;99530.91;;;9.53;64.73
46111;BME280;31849;55.992;37.252;2023-09-12T02:57:28;99533.50;;;9.52;64.91
46111;BME280;31849;55.992;37.252;2023-09-12T03:02:33;99524.84;;;9.57;64.78
46111;BME280;31849;55.992;37.252;2023-09-12T03:07:37;99530.91;;;9.56;64.32
46111;BME280;31849;55.992;37.252;2023-09-12T03:12:41;99536.09;;;9.55;64.50
46111;BME280;31849;55.992;37.252;2023-09-12T03:17:46;99536.97;;;9.67;64.45
46111;BME280;31849;55.992;37.252;2023-09-12T03:22:49;99535.28;;;9.71;63.85
46111;BME280;31849;55.992;37.252;2023-09-12T03:27:53;99526.59;;;9.58;63.64
46111;BME280;31849;55.992;37.252;2023-09-12T03:32:58;99547.44;;;9.92;63.52
46111;BME280;31849;55.992;37.252;2023-09-12T03:38:01;99538.78;;;10.07;63.99
46111;BME280;31849;55.992;37.252;2023-09-12T03:43:05;99547.47;;;10.25;63.79
46111;BME280;31849;55.992;37.252;2023-09-12T03:48:10;99550.97;;;10.45;64.35
46111;BME280;31849;55.992;37.252;2023-09-12T03:53:14;99544.88;;;10.68;63.22
46111;BME280;31849;55.992;37.252;2023-09-12T03:58:18;99547.41;;;10.86;62.75
46111;BME280;31849;55.992;37.252;2023-09-12T04:03:23;99546.06;;;12.00;60.83
46111;BME280;31849;55.992;37.252;2023-09-12T04:08:26;99549.84;;;16.34;50.48
46111;BME280;31849;55.992;37.252;2023-09-12T04:13:30;99552.63;;;19.45;44.04
46111;BME280;31849;55.992;37.252;2023-09-12T04:18:35;99536.22;;;20.92;41.33
46111;BME280;31849;55.992;37.252;2023-09-12T04:23:39;99556.09;;;17.30;48.49
46111;BME280;31849;55.992;37.252;2023-09-12T04:28:42;99557.13;;;15.43;52.55
46111;BME280;31849;55.992;37.252;2023-09-12T04:33:47;99559.91;;;14.90;54.18
46111;BME280;31849;55.992;37.252;2023-09-12T04:38:51;99568.22;;;14.60;54.80
46111;BME280;31849;55.992;37.252;2023-09-12T04:43:54;99569.25;;;14.53;55.14
46111;BME280;31849;55.992;37.252;2023-09-12T04:49:00;99577.50;;;14.27;56.45
46111;BME280;31849;55.992;37.252;2023-09-12T04:54:05;99568.28;;;14.04;57.19
46111;BME280;31849;55.992;37.252;2023-09-12T04:59:10;99571.13;;;14.45;56.52
46111;BME280;31849;55.992;37.252;2023-09-12T05:04:15;99570.47;;;20.08;45.45
46111;BME280;31849;55.992;37.252;2023-09-12T05:09:19;99587.94;;;25.55;34.47
46111;BME280;31849;55.992;37.252;2023-09-12T05:14:23;99584.66;;;27.90;31.03
46111;BME280;31849;55.992;37.252;2023-09-12T05:19:30;99579.88;;;29.83;28.18
46111;BME280;31849;55.992;37.252;2023-09-12T05:24:33;99576.97;;;29.63;27.05
46111;BME280;31849;55.992;37.252;2023-09-12T05:29:37;99580.13;;;30.89;25.85
46111;BME280;31849;55.992;37.252;2023-09-12T05:34:42;99585.66;;;34.29;22.23
46111;BME280;31849;55.992;37.252;2023-09-12T05:39:47;99601.97;;;32.87;22.64
46111;BME280;31849;55.992;37.252;2023-09-12T05:44:50;99572.25;;;33.26;22.13
46111;BME280;31849;55.992;37.252;2023-09-12T05:49:57;99593.03;;;34.81;20.35
46111;BME280;31849;55.992;37.252;2023-09-12T05:55:01;99592.84;;;35.53;19.60
46111;BME280;31849;55.992;37.252;2023-09-12T06:00:07;99595.97;;;37.41;17.89
46111;BME280;31849;55.992;37.252;2023-09-12T06:05:15;99595.91;;;37.49;17.81
46111;BME280;31849;55.992;37.252;2023-09-12T06:10:19;99599.09;;;38.94;16.62
46111;BME280;31849;55.992;37.252;2023-09-12T06:15:22;99609.88;;;38.64;16.72
46111;BME280;31849;55.992;37.252;2023-09-12T06:20:27;99607.53;;;37.02;17.23
46111;BME280;31849;55.992;37.252;2023-09-12T06:25:31;99608.16;;;39.09;16.00
46111;BME280;31849;55.992;37.252;2023-09-12T06:30:34;99615.09;;;39.12;16.00
46111;BME280;31849;55.992;37.252;2023-09-12T06:35:40;99626.13;;;39.63;16.01
46111;BME280;31849;55.992;37.252;2023-09-12T06:40:44;99619.44;;;41.67;14.33
46111;BME280;31849;55.992;37.252;2023-09-12T06:45:49;99622.44;;;42.27;14.10
46111;BME280;31849;55.992;37.252;2023-09-12T06:50:55;99616.75;;;42.35;13.58
46111;BME280;31849;55.992;37.252;2023-09-12T06:55:58;99625.19;;;43.34;13.14
46111;BME280;31849;55.992;37.252;2023-09-12T07:01:02;99629.06;;;43.85;12.55
46111;BME280;31849;55.992;37.252;2023-09-12T07:06:08;99619.16;;;41.20;13.91
46111;BME280;31849;55.992;37.252;2023-09-12T07:11:11;99629.69;;;41.30;14.38
46111;BME280;31849;55.992;37.252;2023-09-12T07:16:15;99623.28;;;40.88;14.12
46111;BME280;31849;55.992;37.252;2023-09-12T07:21:20;99632.22;;;42.08;13.78
46111;BME280;31849;55.992;37.252;2023-09-12T07:26:24;99635.94;;;41.52;13.83
46111;BME280;31849;55.992;37.252;2023-09-12T07:31:29;99636.59;;;41.26;13.90
46111;BME280;31849;55.992;37.252;2023-09-12T07:36:34;99636.34;;;42.59;13.38
46111;BME280;31849;55.992;37.252;2023-09-12T07:41:38;99636.22;;;41.64;13.74
46111;BME280;31849;55.992;37.252;2023-09-12T07:46:42;99628.41;;;42.03;13.16
46111;BME280;31849;55.992;37.252;2023-09-12T07:51:47;99635.25;;;42.40;13.10
46111;BME280;31849;55.992;37.252;2023-09-12T07:56:50;99634.00;;;42.36;13.44
46111;BME280;31849;55.992;37.252;2023-09-12T08:01:54;99627.66;;;41.74;13.17
46111;BME280;31849;55.992;37.252;2023-09-12T08:06:59;99621.88;;;39.46;15.16
46111;BME280;31849;55.992;37.252;2023-09-12T08:12:03;99622.75;;;38.47;15.76
46111;BME280;31849;55.992;37.252;2023-09-12T08:17:07;99616.63;;;38.45;15.63
46111;BME280;31849;55.992;37.252;2023-09-12T08:22:12;99612.06;;;37.26;16.40
46111;BME280;31849;55.992;37.252;2023-09-12T08:27:16;99612.28;;;36.92;16.91
46111;BME280;31849;55.992;37.252;2023-09-12T08:32:20;99618.09;;;36.05;17.75
46111;BME280;31849;55.992;37.252;2023-09-12T08:37:25;99609.81;;;35.37;18.03
46111;BME280;31849;55.992;37.252;2023-09-12T08:42:30;99608.63;;;32.54;21.07
46111;BME280;31849;55.992;37.252;2023-09-12T08:47:35;99606.94;;;31.00;22.80
46111;BME280;31849;55.992;37.252;2023-09-12T08:52:43;99601.09;;;28.94;25.17
46111;BME280;31849;55.992;37.252;2023-09-12T08:58:05;99603.97;;;27.44;26.91
46111;BME280;31849;55.992;37.252;2023-09-12T09:03:09;99597.44;;;27.23;27.05
46111;BME280;31849;55.992;37.252;2023-09-12T09:08:15;99590.88;;;26.35;28.30
46111;BME280;31849;55.992;37.252;2023-09-12T09:13:19;99583.78;;;25.51;29.90
46111;BME280;31849;55.992;37.252;2023-09-12T09:18:22;99578.41;;;24.63;31.03
46111;BME280;31849;55.992;37.252;2023-09-12T09:23:27;99579.47;;;25.05;29.38
46111;BME280;31849;55.992;37.252;2023-09-12T09:28:30;99578.22;;;24.66;30.39
46111;BME280;31849;55.992;37.252;2023-09-12T09:33:35;99576.91;;;24.43;30.30
46111;BME280;31849;55.992;37.252;2023-09-12T09:38:40;99572.56;;;23.94;31.61
46111;BME280;31849;55.992;37.252;2023-09-12T09:43:44;99578.03;;;23.25;32.55
46111;BME280;31849;55.992;37.252;2023-09-12T09:48:51;99584.56;;;23.35;33.15
46111;BME280;31849;55.992;37.252;2023-09-12T09:53:57;99582.47;;;23.25;32.25
46111;BME280;31849;55.992;37.252;2023-09-12T09:59:02;99591.78;;;23.16;31.71
46111;BME280;31849;55.992;37.252;2023-09-12T10:04:07;99575.22;;;22.93;32.22
46111;BME280;31849;55.992;37.252;2023-09-12T10:09:14;99586.84;;;23.26;31.79
46111;BME280;31849;55.992;37.252;2023-09-12T10:14:19;99579.44;;;23.15;32.15
46111;BME280;31849;55.992;37.252;2023-09-12T10:19:25;99587.66;;;23.44;31.10
46111;BME280;31849;55.992;37.252;2023-09-12T10:24:33;99577.44;;;23.69;31.08
46111;BME280;31849;55.992;37.252;2023-09-12T10:29:38;99572.19;;;23.18;31.47
46111;BME280;31849;55.992;37.252;2023-09-12T10:34:44;99570.53;;;23.49;31.76
46111;BME280;31849;55.992;37.252;2023-09-12T10:39:49;99578.88;;;23.08;32.12
46111;BME280;31849;55.992;37.252;2023-09-12T10:44:57;99573.66;;;23.07;32.28
46111;BME280;31849;55.992;37.252;2023-09-12T10:50:03;99573.31;;;23.14;32.05
46111;BME280;31849;55.992;37.252;2023-09-12T10:55:09;99570.94;;;22.56;32.68
46111;BME280;31849;55.992;37.252;2023-09-12T11:00:20;99562.94;;;22.75;32.60
46111;BME280;31849;55.992;37.252;2023-09-12T11:05:37;99563.00;;;22.73;31.94
46111;BME280;31849;55.992;37.252;2023-09-12T11:10:43;99559.72;;;22.68;31.52
46111;BME280;31849;55.992;37.252;2023-09-12T11:16:10;99560.19;;;22.76;31.23
46111;BME280;31849;55.992;37.252;2023-09-12T11:21:14;99544.03;;;22.46;30.60
46111;BME280;31849;55.992;37.252;2023-09-12T11:26:20;99551.63;;;22.36;30.90
46111;BME280;31849;55.992;37.252;2023-09-12T11:31:26;99544.59;;;22.16;30.77
46111;BME280;31849;55.992;37.252;2023-09-12T11:36:30;99546.34;;;22.17;30.25
46111;BME280;31849;55.992;37.252;2023-09-12T11:41:42;99555.91;;;21.83;30.11
46111;BME280;31849;55.992;37.252;2023-09-12T11:46:47;99548.75;;;22.22;30.93
46111;BME280;31849;55.992;37.252;2023-09-12T11:51:52;99545.06;;;22.07;30.04
46111;BME280;31849;55.992;37.252;2023-09-12T11:56:57;99533.88;;;21.64;30.07
46111;BME280;31849;55.992;37.252;2023-09-12T12:02:06;99551.06;;;21.74;31.92
46111;BME280;31849;55.992;37.252;2023-09-12T12:07:11;99546.88;;;21.87;31.82
46111;BME280;31849;55.992;37.252;2023-09-12T12:12:16;99543.94;;;21.74;32.29
46111;BME280;31849;55.992;37.252;2023-09-12T12:17:19;99544.91;;;21.54;31.94
46111;BME280;31849;55.992;37.252;2023-09-12T12:22:23;99542.13;;;21.57;32.22
46111;BME280;31849;55.992;37.252;2023-09-12T12:27:29;99528.81;;;21.59;32.16
46111;BME280;31849;55.992;37.252;2023-09-12T12:32:33;99518.94;;;21.63;31.68
46111;BME280;31849;55.992;37.252;2023-09-12T12:37:37;99538.41;;;21.62;31.71
46111;BME280;31849;55.992;37.252;2023-09-12T12:42:42;99535.16;;;21.55;31.95
46111;BME280;31849;55.992;37.252;2023-09-12T12:47:58;99541.63;;;21.48;31.56
46111;BME280;31849;55.992;37.252;2023-09-12T12:53:02;99535.13;;;21.36;30.51
46111;BME280;31849;55.992;37.252;2023-09-12T12:58:07;99531.38;;;21.60;30.04
46111;BME280;31849;55.992;37.252;2023-09-12T13:03:10;99535.09;;;21.75;30.35
46111;BME280;31849;55.992;37.252;2023-09-12T13:08:14;99529.06;;;21.72;30.70
46111;BME280;31849;55.992;37.252;2023-09-12T13:13:19;99538.31;;;21.63;31.79
46111;BME280;31849;55.992;37.252;2023-09-12T13:18:23;99530.09;;;21.50;32.05
46111;BME280;31849;55.992;37.252;2023-09-12T13:23:27;99526.75;;;21.45;31.73
46111;BME280;31849;55.992;37.252;2023-09-12T13:28:32;99529.94;;;21.53;31.77
46111;BME280;31849;55.992;37.252;2023-09-12T13:33:35;99534.69;;;21.26;32.37
46111;BME280;31849;55.992;37.252;2023-09-12T13:38:39;99537.59;;;21.20;32.47
46111;BME280;31849;55.992;37.252;2023-09-12T13:43:44;99531.13;;;20.87;33.28
46111;BME280;31849;55.992;37.252;2023-09-12T13:48:48;99529.41;;;20.86;33.22
46111;BME280;31849;55.992;37.252;2023-09-12T13:53:52;99526.22;;;20.78;33.30
46111;BME280;31849;55.992;37.252;2023-09-12T13:58:57;99531.00;;;20.70;34.38
46111;BME280;31849;55.992;37.252;2023-09-12T14:04:01;99535.41;;;20.69;34.39
46111;BME280;31849;55.992;37.252;2023-09-12T14:09:06;99522.75;;;20.55;33.72
46111;BME280;31849;55.992;37.252;2023-09-12T14:14:11;99526.25;;;20.35;34.04
46111;BME280;31849;55.992;37.252;2023-09-12T14:19:18;99527.50;;;20.27;34.21
46111;BME280;31849;55.992;37.252;2023-09-12T14:24:22;99523.78;;;20.31;34.48
46111;BME280;31849;55.992;37.252;2023-09-12T14:29:28;99521.75;;;20.37;34.59
46111;BME280;31849;55.992;37.252;2023-09-12T14:34:32;99520.34;;;20.29;34.88
46111;BME280;31849;55.992;37.252;2023-09-12T14:39:35;99534.06;;;20.16;35.16
46111;BME280;31849;55.992;37.252;2023-09-12T14:44:41;99532.03;;;20.01;35.99
46111;BME280;31849;55.992;37.252;2023-09-12T14:49:44;99533.25;;;19.92;36.37
46111;BME280;31849;55.992;37.252;2023-09-12T14:54:52;99532.72;;;19.84;36.48
46111;BME280;31849;55.992;37.252;2023-09-12T14:59:57;99535.81;;;19.72;37.06
46111;BME280;31849;55.992;37.252;2023-09-12T15:05:06;99542.13;;;19.67;37.08
46111;BME280;31849;55.992;37.252;2023-09-12T15:10:10;99543.44;;;19.56;37.22
46111;BME280;31849;55.992;37.252;2023-09-12T15:15:15;99549.81;;;19.50;37.80
46111;BME280;31849;55.992;37.252;2023-09-12T15:20:19;99553.81;;;19.37;38.11
46111;BME280;31849;55.992;37.252;2023-09-12T15:25:23;99562.19;;;19.24;38.80
46111;BME280;31849;55.992;37.252;2023-09-12T15:30:28;99559.84;;;19.17;39.09
46111;BME280;31849;55.992;37.252;2023-09-12T15:35:32;99561.56;;;18.92;40.62
46111;BME280;31849;55.992;37.252;2023-09-12T15:40:35;99561.50;;;18.67;41.84
46111;BME280;31849;55.992;37.252;2023-09-12T15:45:40;99568.44;;;18.44;42.50
46111;BME280;31849;55.992;37.252;2023-09-12T15:50:52;99574.63;;;18.15;43.54
46111;BME280;31849;55.992;37.252;2023-09-12T15:55:57;99574.59;;;17.87;44.67
46111;BME280;31849;55.992;37.252;2023-09-12T16:01:02;99582.31;;;17.63;45.63
46111;BME280;31849;55.992;37.252;2023-09-12T16:06:06;99582.34;;;17.32;46.37
46111;BME280;31849;55.992;37.252;2023-09-12T16:11:12;99578.63;;;17.08;47.18
46111;BME280;31849;55.992;37.252;2023-09-12T16:16:19;99592.16;;;16.92;47.77
46111;BME280;31849;55.992;37.252;2023-09-12T16:21:23;99580.53;;;16.66;48.79
46111;BME280;31849;55.992;37.252;2023-09-12T16:26:27;99586.31;;;16.46;49.26
46111;BME280;31849;55.992;37.252;2023-09-12T16:31:32;99597.31;;;16.25;50.31
46111;BME280;31849;55.992;37.252;2023-09-12T16:36:36;99600.44;;;16.02;50.74
46111;BME280;31849;55.992;37.252;2023-09-12T16:41:40;99606.06;;;15.85;51.17
46111;BME280;31849;55.992;37.252;2023-09-12T16:46:45;99596.78;;;15.68;51.53
46111;BME280;31849;55.992;37.252;2023-09-12T16:51:49;99602.56;;;15.42;52.20
46111;BME280;31849;55.992;37.252;2023-09-12T16:56:52;99591.63;;;15.20;52.70
46111;BME280;31849;55.992;37.252;2023-09-12T17:01:57;99592.69;;;15.09;53.23
46111;BME280;31849;55.992;37.252;2023-09-12T17:07:01;99604.25;;;14.98;53.46
46111;BME280;31849;55.992;37.252;2023-09-12T17:12:05;99602.69;;;14.87;53.45
46111;BME280;31849;55.992;37.252;2023-09-12T17:17:11;99603.69;;;14.82;53.90
46111;BME280;31849;55.992;37.252;2023-09-12T17:22:15;99602.97;;;14.72;53.94
46111;BME280;31849;55.992;37.252;2023-09-12T17:27:18;99605.75;;;14.63;54.12
46111;BME280;31849;55.992;37.252;2023-09-12T17:32:23;99602.34;;;14.54;54.25
46111;BME280;31849;55.992;37.252;2023-09-12T17:37:29;99604.34;;;14.38;54.60
46111;BME280;31849;55.992;37.252;2023-09-12T17:42:33;99603.66;;;14.29;54.94
46111;BME280;31849;55.992;37.252;2023-09-12T17:47:38;99612.38;;;14.26;54.85
46111;BME280;31849;55.992;37.252;2023-09-12T17:52:41;99606.56;;;14.07;55.55
46111;BME280;31849;55.992;37.252;2023-09-12T17:57:45;99605.06;;;13.90;55.97
46111;BME280;31849;55.992;37.252;2023-09-12T18:02:51;99611.19;;;13.89;56.17
46111;BME280;31849;55.992;37.252;2023-09-12T18:07:54;99608.75;;;13.76;55.99
46111;BME280;31849;55.992;37.252;2023-09-12T18:12:58;99617.63;;;13.62;56.22
46111;BME280;31849;55.992;37.252;2023-09-12T18:18:04;99619.50;;;13.52;56.65
46111;BME280;31849;55.992;37.252;2023-09-12T18:23:08;99623.06;;;13.45;56.88
46111;BME280;31849;55.992;37.252;2023-09-12T18:28:12;99623.16;;;13.38;56.82
46111;BME280;31849;55.992;37.252;2023-09-12T18:33:17;99617.94;;;13.31;56.91
46111;BME280;31849;55.992;37.252;2023-09-12T18:38:21;99617.22;;;13.18;57.06
46111;BME280;31849;55.992;37.252;2023-09-12T18:43:25;99620.75;;;13.13;57.43
46111;BME280;31849;55.992;37.252;2023-09-12T18:48:29;99632.97;;;13.12;57.63
46111;BME280;31849;55.992;37.252;2023-09-12T18:53:35;99631.34;;;12.97;57.46
46111;BME280;31849;55.992;37.252;2023-09-12T18:58:39;99624.44;;;12.93;57.44
46111;BME280;31849;55.992;37.252;2023-09-12T19:03:45;99631.38;;;12.93;57.84
46111;BME280;31849;55.992;37.252;2023-09-12T19:08:49;99628.91;;;12.79;58.11
46111;BME280;31849;55.992;37.252;2023-09-12T19:13:53;99638.50;;;12.78;57.36
46111;BME280;31849;55.992;37.252;2023-09-12T19:18:58;99632.41;;;12.76;57.71
46111;BME280;31849;55.992;37.252;2023-09-12T19:24:02;99636.84;;;12.66;57.40
46111;BME280;31849;55.992;37.252;2023-09-12T19:29:06;99636.94;;;12.53;57.39
46111;BME280;31849;55.992;37.252;2023-09-12T19:34:11;99633.50;;;12.49;57.89
46111;BME280;31849;55.992;37.252;2023-09-12T19:39:15;99637.91;;;12.38;57.47
46111;BME280;31849;55.992;37.252;2023-09-12T19:44:18;99644.97;;;12.26;57.63
46111;BME280;31849;55.992;37.252;2023-09-12T19:49:24;99641.47;;;12.26;58.14
46111;BME280;31849;55.992;37.252;2023-09-12T19:54:27;99650.22;;;12.14;58.32
46111;BME280;31849;55.992;37.252;2023-09-12T19:59:31;99642.44;;;12.09;59.14
46111;BME280;31849;55.992;37.252;2023-09-12T20:04:36;99653.75;;;12.05;58.66
46111;BME280;31849;55.992;37.252;2023-09-12T20:09:40;99646.00;;;11.90;59.07
46111;BME280;31849;55.992;37.252;2023-09-12T20:14:43;99644.25;;;11.86;58.70
46111;BME280;31849;55.992;37.252;2023-09-12T20:19:48;99646.03;;;11.79;59.00
46111;BME280;31849;55.992;37.252;2023-09-12T20:24:52;99650.38;;;11.75;58.69
46111;BME280;31849;55.992;37.252;2023-09-12T20:29:55;99644.38;;;11.66;58.91
46111;BME280;31849;55.992;37.252;2023-09-12T20:35:01;99660.81;;;11.72;58.85
46111;BME280;31849;55.992;37.252;2023-09-12T20:40:06;99661.69;;;11.68;59.12
46111;BME280;31849;55.992;37.252;2023-09-12T20:45:10;99665.22;;;11.59;59.01
46111;BME280;31849;55.992;37.252;2023-09-12T20:50:24;99666.91;;;11.68;59.09
46111;BME280;31849;55.992;37.252;2023-09-12T20:55:35;99676.50;;;11.61;59.29
46111;BME280;31849;55.992;37.252;2023-09-12T21:00:39;99679.16;;;11.51;59.79
46111;BME280;31849;55.992;37.252;2023-09-12T21:05:44;99676.53;;;11.54;59.52
46111;BME280;31849;55.992;37.252;2023-09-12T21:10:48;99676.56;;;11.46;59.35
46111;BME280;31849;55.992;37.252;2023-09-12T21:15:52;99671.34;;;11.41;59.01
46111;BME280;31849;55.992;37.252;2023-09-12T21:20:57;99673.94;;;11.37;59.48
46111;BME280;31849;55.992;37.252;2023-09-12T21:26:01;99671.38;;;11.29;59.39
46111;BME280;31849;55.992;37.252;2023-09-12T21:31:04;99681.78;;;11.32;59.27
46111;BME280;31849;55.992;37.252;2023-09-12T21:36:09;99684.38;;;11.32;59.60
46111;BME280;31849;55.992;37.252;2023-09-12T21:41:13;99697.41;;;11.29;59.38
46111;BME280;31849;55.992;37.252;2023-09-12T21:46:16;99692.19;;;11.24;59.88
46111;BME280;31849;55.992;37.252;2023-09-12T21:51:22;99661.88;;;11.05;60.16
46111;BME280;31849;55.992;37.252;2023-09-12T21:56:26;99675.72;;;11.13;59.90
46111;BME280;31849;55.992;37.252;2023-09-12T22:01:29;99687.88;;;11.11;60.01
46111;BME280;31849;55.992;37.252;2023-09-12T22:06:34;99687.03;;;11.07;60.04
46111;BME280;31849;55.992;37.252;2023-09-12T22:11:38;99693.97;;;11.02;60.20
46111;BME280;31849;55.992;37.252;2023-09-12T22:16:41;99698.31;;;11.00;60.19
46111;BME280;31849;55.992;37.252;2023-09-12T22:21:46;99702.63;;;11.00;60.20
46111;BME280;31849;55.992;37.252;2023-09-12T22:26:50;99706.13;;;10.93;60.53
46111;BME280;31849;55.992;37.252;2023-09-12T22:31:54;99705.22;;;10.87;60.27
46111;BME280;31849;55.992;37.252;2023-09-12T22:37:00;99710.44;;;10.84;60.53
46111;BME280;31849;55.992;37.252;2023-09-12T22:42:05;99706.94;;;10.76;60.43
46111;BME280;31849;55.992;37.252;2023-09-12T22:47:09;99698.28;;;10.72;60.47
46111;BME280;31849;55.992;37.252;2023-09-12T22:52:14;99695.69;;;10.76;60.86
46111;BME280;31849;55.992;37.252;2023-09-12T22:57:17;99700.91;;;10.72;60.62
46111;BME280;31849;55.992;37.252;2023-09-12T23:02:21;99701.75;;;10.65;60.38
46111;BME280;31849;55.992;37.252;2023-09-12T23:07:26;99704.34;;;10.54;60.64
46111;BME280;31849;55.992;37.252;2023-09-12T23:12:29;99699.09;;;10.39;59.84
46111;BME280;31849;55.992;37.252;2023-09-12T23:17:33;99699.03;;;10.16;60.60
46111;BME280;31849;55.992;37.252;2023-09-12T23:22:38;99693.84;;;10.20;60.66
46111;BME280;31849;55.992;37.252;2023-09-12T23:27:42;99696.44;;;10.22;60.72
46111;BME280;31849;55.992;37.252;2023-09-12T23:32:46;99698.19;;;10.20;60.93
46111;BME280;31849;55.992;37.252;2023-09-12T23:37:51;99687.78;;;10.21;60.59
46111;BME280;31849;55.992;37.252;2023-09-12T23:42:55;99685.13;;;10.14;60.80
46111;BME280;31849;55.992;37.252;2023-09-12T23:47:58;99689.47;;;10.13;61.02
46111;BME280;31849;55.992;37.252;2023-09-12T23:53:04;99691.22;;;10.10;60.93
46111;BME280;31849;55.992;37.252;2023-09-12T23:58:07;99693.72;;;9.93;61.14
